createdAt,value
2024-03-06T00:00:05.812Z,94.06
2024-03-06T00:05:09.373Z,93.97
2024-03-06T00:10:11.457Z,94.21
2024-03-06T00:15:13.253Z,93.86
2024-03-06T00:20:15.277Z,93.94
2024-03-06T00:25:17.482Z,93.58
2024-03-06T00:30:19.614Z,93.94
2024-03-06T00:35:22.990Z,94.20
2024-03-06T00:40:25.402Z,93.69
2024-03-06T00:45:27.164Z,93.75
2024-03-06T00:50:28.936Z,93.51
2024-03-06T00:55:31.120Z,93.56
2024-03-06T01:00:32.920Z,93.20
2024-03-06T01:05:34.682Z,92.95
2024-03-06T01:10:36.967Z,93.48
2024-03-06T01:15:39.939Z,93.25
2024-03-06T01:20:42.277Z,92.88
2024-03-06T01:25:44.293Z,93.02
2024-03-06T01:30:46.281Z,92.73
2024-03-06T01:36:01.324Z,93.15
2024-03-06T01:41:05.981Z,92.64
2024-03-06T01:46:08.463Z,93.27
2024-03-06T01:51:11.166Z,93.42
2024-03-06T01:56:19.284Z,93.56
2024-03-06T02:01:23.711Z,93.09
2024-03-06T02:06:27.672Z,93.28
2024-03-06T02:11:30.897Z,93.70
2024-03-06T02:16:36.302Z,93.70
2024-03-06T02:21:39.773Z,93.57
2024-03-06T02:26:43.397Z,93.47
2024-03-06T02:31:46.888Z,93.71
2024-03-06T02:37:03.808Z,93.38
2024-03-06T02:42:10.101Z,93.12
2024-03-06T02:47:12.364Z,93.30
2024-03-06T02:52:14.267Z,92.94
2024-03-06T02:57:16.150Z,93.35
2024-03-06T03:02:18.148Z,93.47
2024-03-06T03:07:22.890Z,93.70
2024-03-06T03:12:24.770Z,93.70
2024-03-06T03:17:26.922Z,93.88
2024-03-06T03:22:28.948Z,93.61
2024-03-06T03:27:30.661Z,93.59
2024-03-06T03:32:32.948Z,92.98
2024-03-06T03:37:35.514Z,92.73
2024-03-06T03:42:39.686Z,92.89
2024-03-06T03:47:43.900Z,93.14
2024-03-06T03:52:46.062Z,92.99
2024-03-06T03:57:47.860Z,92.99
2024-03-06T04:02:50.067Z,92.75
2024-03-06T04:07:51.980Z,92.99
2024-03-06T04:12:54.620Z,93.26
2024-03-06T04:18:10.891Z,93.26
2024-03-06T04:23:12.784Z,93.23
2024-03-06T04:28:14.619Z,92.94
2024-03-06T04:33:16.494Z,92.82
2024-03-06T04:38:18.928Z,92.78
2024-03-06T04:43:20.909Z,92.80
2024-03-06T04:48:23.395Z,93.33
2024-03-06T04:53:25.206Z,93.55
2024-03-06T04:58:27.103Z,93.86
2024-03-06T06:02:11.774Z,95.35
2024-03-06T06:07:13.893Z,95.72
2024-03-06T06:12:15.859Z,95.78
2024-03-06T06:17:18.781Z,95.69
2024-03-06T06:22:20.808Z,95.85
2024-03-06T06:27:22.776Z,95.98
2024-03-06T06:32:24.963Z,95.99
2024-03-06T06:37:45.501Z,95.86
2024-03-06T06:42:52.758Z,96.16
2024-03-06T06:47:55.197Z,96.49
2024-03-06T06:52:57.815Z,96.23
2024-03-06T06:58:00.047Z,95.00
2024-03-06T07:03:01.793Z,94.83
2024-03-06T07:08:03.939Z,94.95
2024-03-06T07:13:09.100Z,95.08
2024-03-06T07:18:11.296Z,95.69
2024-03-06T07:23:13.128Z,95.96
2024-03-06T07:28:14.952Z,95.72
2024-03-06T07:33:16.843Z,95.65
2024-03-06T07:38:37.154Z,95.87
2024-03-06T07:43:39.786Z,95.88
2024-03-06T07:48:47.547Z,96.09
2024-03-06T07:53:51.566Z,95.68
2024-03-06T07:58:54.704Z,95.16
2024-03-06T08:03:57.794Z,94.83
2024-03-06T08:09:01.929Z,94.74
2024-03-06T08:14:07.389Z,94.53
2024-03-06T08:19:09.299Z,94.38
2024-03-06T08:24:12.093Z,93.39
2024-03-06T08:29:14.147Z,94.03
2024-03-06T08:34:17.930Z,93.61
2024-03-06T08:39:22.439Z,93.70
2024-03-06T08:44:24.229Z,93.39
2024-03-06T08:49:26.779Z,92.80
2024-03-06T08:54:28.789Z,92.48
2024-03-06T08:59:31.963Z,92.58
2024-03-06T09:04:33.946Z,91.65
2024-03-06T09:09:37.406Z,90.54
2024-03-06T09:14:40.124Z,90.82
2024-03-06T09:19:51.826Z,90.34
2024-03-06T09:25:02.920Z,90.22
2024-03-06T09:30:05.227Z,90.12
2024-03-06T09:35:08.746Z,88.98
2024-03-06T09:40:12.245Z,89.10
2024-03-06T09:45:14.895Z,89.13
2024-03-06T09:50:17.849Z,87.98
2024-03-06T09:55:19.712Z,88.01
2024-03-06T10:00:22.971Z,87.70
2024-03-06T10:05:25.611Z,86.99
2024-03-06T10:10:27.928Z,86.74
2024-03-06T10:15:30.352Z,87.37
2024-03-06T10:20:36.204Z,87.88
2024-03-06T10:25:38.129Z,87.87
2024-03-06T10:30:44.989Z,87.53
2024-03-06T10:35:49.668Z,86.71
2024-03-06T10:40:52.435Z,86.06
2024-03-06T10:46:11.730Z,84.28
2024-03-06T10:51:15.146Z,84.56
2024-03-06T10:56:18.614Z,84.15
2024-03-06T11:01:21.147Z,83.39
2024-03-06T11:06:23.023Z,83.06
2024-03-06T11:11:26.004Z,82.50
2024-03-06T11:16:30.828Z,81.97
2024-03-06T11:21:33.227Z,81.76
2024-03-06T11:26:36.939Z,81.98
2024-03-06T11:31:41.670Z,81.05
2024-03-06T11:36:44.384Z,80.16
2024-03-06T11:41:46.605Z,80.57
2024-03-06T11:46:49.906Z,80.30
2024-03-06T11:51:53.419Z,80.36
2024-03-06T11:56:57.417Z,80.20
2024-03-06T12:02:04.531Z,79.64
2024-03-06T12:07:07.277Z,80.11
2024-03-06T12:12:12.131Z,79.45
2024-03-06T12:17:18.365Z,78.77
2024-03-06T12:22:20.374Z,78.28
2024-03-06T12:27:23.933Z,77.96
2024-03-06T12:32:37.919Z,77.26
2024-03-06T12:37:40.825Z,77.33
2024-03-06T12:42:42.604Z,76.69
2024-03-06T12:47:45.384Z,75.85
2024-03-06T12:52:47.437Z,76.49
2024-03-06T12:57:50.917Z,76.02
2024-03-06T13:02:52.700Z,75.56
2024-03-06T13:07:55.100Z,75.67
2024-03-06T13:12:56.878Z,75.67
2024-03-06T13:17:59.155Z,75.82
2024-03-06T13:23:01.288Z,74.59
2024-03-06T13:28:04.319Z,74.73
2024-03-06T13:33:06.666Z,74.94
2024-03-06T13:38:08.972Z,75.16
2024-03-06T13:43:10.896Z,75.40
2024-03-06T13:48:17.090Z,75.14
2024-03-06T13:53:19.136Z,75.49
2024-03-06T13:58:21.576Z,76.37
2024-03-06T14:03:23.396Z,77.70
2024-03-06T14:08:26.793Z,78.15
2024-03-06T14:13:28.623Z,79.00
2024-03-06T14:18:30.460Z,79.77
2024-03-06T14:23:33.540Z,80.33
2024-03-06T14:28:35.648Z,80.91
2024-03-06T14:33:40.689Z,81.49
2024-03-06T14:39:00.920Z,81.91
2024-03-06T14:44:03.851Z,81.86
2024-03-06T14:49:05.987Z,82.25
2024-03-06T14:54:08.073Z,82.53
2024-03-06T14:59:10.008Z,82.68
2024-03-06T15:04:14.637Z,82.72
2024-03-06T15:09:22.886Z,82.65
2024-03-06T15:14:26.171Z,82.96
2024-03-06T15:19:28.627Z,82.96
2024-03-06T15:24:31.718Z,83.04
2024-03-06T15:29:33.868Z,83.31
2024-03-06T15:34:35.725Z,83.59
2024-03-06T15:39:37.520Z,83.45
2024-03-06T15:44:40.173Z,83.67
2024-03-06T15:49:42.271Z,83.90
2024-03-06T15:54:44.341Z,84.13
2024-03-06T15:59:46.390Z,84.57
2024-03-06T16:04:48.214Z,85.09
2024-03-06T16:09:53.584Z,85.07
2024-03-06T16:14:55.614Z,85.47
2024-03-06T16:25:46.120Z,85.55
2024-03-06T16:30:47.921Z,86.00
2024-03-06T16:35:49.857Z,86.10
2024-03-06T16:40:51.931Z,86.21
2024-03-06T16:45:53.914Z,86.24
2024-03-06T16:50:56.025Z,86.46
2024-03-06T16:55:58.915Z,86.94
2024-03-06T17:01:00.989Z,87.54
2024-03-06T17:06:03.027Z,87.55
2024-03-06T17:11:05.424Z,87.53
2024-03-06T17:16:11.273Z,87.41
2024-03-06T17:21:13.249Z,87.63
2024-03-06T17:26:15.458Z,88.22
2024-03-06T17:31:17.410Z,88.90
2024-03-06T17:36:19.244Z,89.40
2024-03-06T17:41:21.322Z,89.63
2024-03-06T17:46:23.186Z,89.78
2024-03-06T17:51:32.611Z,89.96
2024-03-06T17:56:34.560Z,90.15
2024-03-06T18:01:37.055Z,90.52
2024-03-06T18:06:40.002Z,90.34
2024-03-06T18:11:43.168Z,90.52
2024-03-06T18:17:05.626Z,90.47
2024-03-06T18:22:07.904Z,90.34
2024-03-06T18:27:10.398Z,90.83
2024-03-06T18:32:13.523Z,90.56
2024-03-06T18:37:16.181Z,91.05
2024-03-06T18:42:21.597Z,91.63
2024-03-06T18:47:24.474Z,91.68
2024-03-06T18:52:26.496Z,91.77
2024-03-06T18:57:31.284Z,91.81
2024-03-06T19:02:33.675Z,91.35
2024-03-06T19:07:35.649Z,90.89
2024-03-06T19:12:42.981Z,90.81
2024-03-06T19:17:46.096Z,91.13
2024-03-06T19:22:50.289Z,91.43
2024-03-06T19:27:52.429Z,91.25
2024-03-06T19:32:55.776Z,91.79
2024-03-06T19:38:04.723Z,91.54
2024-03-06T19:43:07.304Z,91.54
2024-03-06T19:48:10.419Z,91.70
2024-03-06T19:53:15.444Z,91.81
2024-03-06T19:58:17.781Z,91.64
2024-03-06T20:03:20.083Z,91.60
2024-03-06T20:08:22.572Z,91.10
2024-03-06T20:13:25.649Z,91.10
2024-03-06T20:18:27.906Z,91.04
2024-03-06T20:23:44.183Z,91.24
2024-03-06T20:28:52.341Z,91.30
2024-03-06T20:33:56.014Z,90.01
2024-03-06T20:38:58.691Z,89.48
2024-03-06T20:44:00.950Z,90.35
2024-03-06T20:49:04.232Z,91.03
2024-03-06T20:54:06.668Z,90.17
2024-03-06T20:59:08.763Z,89.77
2024-03-06T21:04:14.859Z,89.12
2024-03-06T21:09:17.856Z,89.37
2024-03-06T21:14:22.135Z,87.49
2024-03-06T21:19:24.704Z,88.25
2024-03-06T21:24:27.953Z,88.24
2024-03-06T21:29:32.624Z,88.35
2024-03-06T21:34:34.761Z,90.62
2024-03-06T21:39:55.467Z,89.86
2024-03-06T21:44:58.280Z,88.69
2024-03-06T21:50:00.210Z,87.41
2024-03-06T21:55:03.203Z,86.85
2024-03-06T22:00:08.139Z,86.31
2024-03-06T22:05:10.124Z,84.96
2024-03-06T22:10:12.148Z,83.74
2024-03-06T22:15:13.978Z,83.63
2024-03-06T22:20:16.002Z,83.15
2024-03-06T22:25:18.075Z,82.71
2024-03-06T22:30:20.017Z,82.76
2024-03-06T22:35:22.011Z,82.70
2024-03-06T22:40:23.959Z,82.25
2024-03-06T22:45:25.864Z,82.20
2024-03-06T22:50:27.750Z,81.83
2024-03-06T22:55:29.633Z,81.38
2024-03-06T23:00:39.301Z,81.32
2024-03-06T23:05:41.461Z,81.23
2024-03-06T23:10:44.280Z,80.74
2024-03-06T23:15:47.584Z,80.58
2024-03-06T23:20:50.198Z,80.67
2024-03-06T23:25:52.169Z,80.61
2024-03-06T23:30:54.014Z,80.73
2024-03-06T23:35:56.157Z,80.47
2024-03-06T23:40:57.969Z,80.49
2024-03-06T23:45:59.836Z,80.25
2024-03-06T23:51:05.141Z,80.15
2024-03-06T23:56:07.468Z,79.84
